sensor_id;sensor_type;location;lat;lon;timestamp;pressure;altitude;pressure_sealevel;temperature;humidity
13974;BME280;7060;43.770;4.008;2022-10-31T00:01:10;101612.44;;;17.88;84.26
13974;BME280;7060;43.770;4.008;2022-10-31T00:03:39;101628.50;;;17.90;84.40
13974;BME280;7060;43.770;4.008;2022-10-31T00:06:08;101632.06;;;17.90;84.35
13974;BME280;7060;43.770;4.008;2022-10-31T00:08:36;101625.97;;;17.88;84.23
13974;BME280;7060;43.770;4.008;2022-10-31T00:11:09;101634.06;;;17.88;84.21
13974;BME280;7060;43.770;4.008;2022-10-31T00:13:38;101623.63;;;17.85;84.51
13974;BME280;7060;43.770;4.008;2022-10-31T00:16:13;101626.16;;;17.87;84.52
13974;BME280;7060;43.770;4.008;2022-10-31T00:18:42;101631.56;;;17.87;84.41
13974;BME280;7060;43.770;4.008;2022-10-31T00:21:11;101628.31;;;17.91;84.17
13974;BME280;7060;43.770;4.008;2022-10-31T00:23:39;101622.06;;;17.91;84.30
13974;BME280;7060;43.770;4.008;2022-10-31T00:26:09;101618.34;;;17.92;83.95
13974;BME280;7060;43.770;4.008;2022-10-31T00:28:38;101620.38;;;17.90;84.19
13974;BME280;7060;43.770;4.008;2022-10-31T00:31:08;101616.00;;;17.89;84.25
13974;BME280;7060;43.770;4.008;2022-10-31T00:33:37;101609.94;;;17.87;84.28
13974;BME280;7060;43.770;4.008;2022-10-31T00:36:08;101613.28;;;17.89;84.51
13974;BME280;7060;43.770;4.008;2022-10-31T00:38:40;101604.53;;;17.87;84.59
13974;BME280;7060;43.770;4.008;2022-10-31T00:41:10;101603.47;;;17.88;84.60
13974;BME280;7060;43.770;4.008;2022-10-31T00:43:40;101602.16;;;17.84;84.81
13974;BME280;7060;43.770;4.008;2022-10-31T00:46:09;101599.63;;;17.82;84.92
13974;BME280;7060;43.770;4.008;2022-10-31T00:48:37;101606.72;;;17.83;84.91
13974;BME280;7060;43.770;4.008;2022-10-31T00:51:06;101593.56;;;17.72;84.75
13974;BME280;7060;43.770;4.008;2022-10-31T00:53:35;101595.91;;;17.75;84.74
13974;BME280;7060;43.770;4.008;2022-10-31T00:56:05;101610.91;;;17.94;84.55
13974;BME280;7060;43.770;4.008;2022-10-31T00:58:35;101604.81;;;17.92;84.32
13974;BME280;7060;43.770;4.008;2022-10-31T01:01:04;101599.47;;;17.84;84.62
13974;BME280;7060;43.770;4.008;2022-10-31T01:03:34;101590.34;;;17.69;84.84
13974;BME280;7060;43.770;4.008;2022-10-31T01:06:04;101608.25;;;17.78;84.85
13974;BME280;7060;43.770;4.008;2022-10-31T01:08:34;101603.00;;;17.76;84.84
13974;BME280;7060;43.770;4.008;2022-10-31T01:11:06;101578.84;;;17.58;84.93
13974;BME280;7060;43.770;4.008;2022-10-31T01:13:36;101593.56;;;17.72;84.66
13974;BME280;7060;43.770;4.008;2022-10-31T01:16:06;101591.84;;;17.71;84.79
13974;BME280;7060;43.770;4.008;2022-10-31T01:18:35;101596.44;;;17.71;84.78
13974;BME280;7060;43.770;4.008;2022-10-31T01:21:05;101596.44;;;17.71;84.58
13974;BME280;7060;43.770;4.008;2022-10-31T01:23:33;101596.59;;;17.69;84.24
13974;BME280;7060;43.770;4.008;2022-10-31T01:26:05;101602.84;;;17.70;84.05
13974;BME280;7060;43.770;4.008;2022-10-31T01:28:37;101600.47;;;17.67;84.20
13974;BME280;7060;43.770;4.008;2022-10-31T01:31:07;101601.50;;;17.66;84.40
13974;BME280;7060;43.770;4.008;2022-10-31T01:33:37;101586.28;;;17.56;84.24
13974;BME280;7060;43.770;4.008;2022-10-31T01:36:14;101598.44;;;17.69;84.17
13974;BME280;7060;43.770;4.008;2022-10-31T01:38:43;101600.31;;;17.68;83.99
13974;BME280;7060;43.770;4.008;2022-10-31T01:41:14;101600.31;;;17.68;84.33
13974;BME280;7060;43.770;4.008;2022-10-31T01:43:46;101605.56;;;17.70;84.06
13974;BME280;7060;43.770;4.008;2022-10-31T01:46:18;101599.47;;;17.68;84.29
13974;BME280;7060;43.770;4.008;2022-10-31T01:48:48;101600.31;;;17.68;84.22
13974;BME280;7060;43.770;4.008;2022-10-31T01:51:20;101595.56;;;17.70;84.17
13974;BME280;7060;43.770;4.008;2022-10-31T01:53:52;101586.78;;;17.68;83.87
13974;BME280;7060;43.770;4.008;2022-10-31T01:56:22;101593.03;;;17.69;84.06
13974;BME280;7060;43.770;4.008;2022-10-31T01:58:53;101596.59;;;17.69;84.15
13974;BME280;7060;43.770;4.008;2022-10-31T02:01:23;101589.50;;;17.68;83.68
13974;BME280;7060;43.770;4.008;2022-10-31T02:03:51;101590.84;;;17.64;84.03
13974;BME280;7060;43.770;4.008;2022-10-31T02:06:29;101588.47;;;17.61;84.13
13974;BME280;7060;43.770;4.008;2022-10-31T02:09:03;101591.03;;;17.63;84.24
13974;BME280;7060;43.770;4.008;2022-10-31T02:11:32;101586.97;;;17.67;83.99
13974;BME280;7060;43.770;4.008;2022-10-31T02:14:04;101586.78;;;17.68;83.80
13974;BME280;7060;43.770;4.008;2022-10-31T02:16:32;101582.41;;;17.67;83.73
13974;BME280;7060;43.770;4.008;2022-10-31T02:19:04;101571.75;;;17.66;83.56
13974;BME280;7060;43.770;4.008;2022-10-31T02:21:38;101577.50;;;17.63;83.77
13974;BME280;7060;43.770;4.008;2022-10-31T02:24:42;101583.28;;;17.59;83.86
13974;BME280;7060;43.770;4.008;2022-10-31T02:30:21;101576.47;;;17.55;84.13
13974;BME280;7060;43.770;4.008;2022-10-31T02:33:07;101578.50;;;17.53;84.15
13974;BME280;7060;43.770;4.008;2022-10-31T02:35:50;101564.81;;;17.55;84.24
13974;BME280;7060;43.770;4.008;2022-10-31T02:38:31;101553.16;;;17.54;84.19
13974;BME280;7060;43.770;4.008;2022-10-31T02:41:12;101525.97;;;17.40;84.24
13974;BME280;7060;43.770;4.008;2022-10-31T02:43:56;101514.31;;;17.39;84.15
13974;BME280;7060;43.770;4.008;2022-10-31T02:46:33;101556.88;;;17.62;84.27
13974;BME280;7060;43.770;4.008;2022-10-31T02:49:11;101551.47;;;17.62;84.07
13974;BME280;7060;43.770;4.008;2022-10-31T02:51:43;101541.50;;;17.62;84.05
13974;BME280;7060;43.770;4.008;2022-10-31T02:54:18;101542.00;;;17.66;83.51
13974;BME280;7060;43.770;4.008;2022-10-31T02:56:54;101422.19;;;16.93;83.63
13974;BME280;7060;43.770;4.008;2022-10-31T02:59:26;101552.31;;;17.62;83.71
13974;BME280;7060;43.770;4.008;2022-10-31T03:02:09;101547.06;;;17.60;83.71
13974;BME280;7060;43.770;4.008;2022-10-31T03:04:54;101553.16;;;17.63;83.65
13974;BME280;7060;43.770;4.008;2022-10-31T03:07:35;101546.72;;;17.64;83.55
13974;BME280;7060;43.770;4.008;2022-10-31T03:10:14;101550.78;;;17.68;83.44
13974;BME280;7060;43.770;4.008;2022-10-31T03:12:51;101540.31;;;17.65;83.22
13974;BME280;7060;43.770;4.008;2022-10-31T03:15:27;101544.03;;;17.64;83.41
13974;BME280;7060;43.770;4.008;2022-10-31T03:18:01;101547.75;;;17.63;83.29
13974;BME280;7060;43.770;4.008;2022-10-31T03:20:37;101545.91;;;17.63;83.18
13974;BME280;7060;43.770;4.008;2022-10-31T03:23:10;101531.69;;;17.61;83.19
13974;BME280;7060;43.770;4.008;2022-10-31T03:25:40;101535.06;;;17.63;83.20
13974;BME280;7060;43.770;4.008;2022-10-31T03:28:11;101527.13;;;17.62;83.16
13974;BME280;7060;43.770;4.008;2022-10-31T03:30:42;101530.50;;;17.64;83.25
13974;BME280;7060;43.770;4.008;2022-10-31T03:33:15;101538.63;;;17.64;83.11
13974;BME280;7060;43.770;4.008;2022-10-31T03:35:48;101519.72;;;17.47;83.06
13974;BME280;7060;43.770;4.008;2022-10-31T03:38:19;101548.75;;;17.62;83.19
13974;BME280;7060;43.770;4.008;2022-10-31T03:40:51;101535.25;;;17.62;83.03
13974;BME280;7060;43.770;4.008;2022-10-31T03:43:22;101497.75;;;17.42;82.87
13974;BME280;7060;43.770;4.008;2022-10-31T03:45:53;101523.44;;;17.54;82.86
13974;BME280;7060;43.770;4.008;2022-10-31T03:48:22;101513.78;;;17.52;83.12
13974;BME280;7060;43.770;4.008;2022-10-31T03:50:59;101514.97;;;17.49;83.24
13974;BME280;7060;43.770;4.008;2022-10-31T03:53:34;101476.50;;;17.23;83.50
13974;BME280;7060;43.770;4.008;2022-10-31T03:56:09;101517.84;;;17.48;83.45
13974;BME280;7060;43.770;4.008;2022-10-31T03:58:43;101518.69;;;17.48;83.65
13974;BME280;7060;43.770;4.008;2022-10-31T04:01:15;101520.38;;;17.49;83.55
13974;BME280;7060;43.770;4.008;2022-10-31T04:03:46;101520.03;;;17.52;83.46
13974;BME280;7060;43.770;4.008;2022-10-31T04:06:16;101526.13;;;17.54;83.27
13974;BME280;7060;43.770;4.008;2022-10-31T04:08:49;101528.84;;;17.54;83.21
13974;BME280;7060;43.770;4.008;2022-10-31T04:11:22;101518.19;;;17.53;82.94
13974;BME280;7060;43.770;4.008;2022-10-31T04:14:15;101520.72;;;17.46;83.15
13974;BME280;7060;43.770;4.008;2022-10-31T04:16:44;101516.34;;;17.45;83.09
13974;BME280;7060;43.770;4.008;2022-10-31T04:19:14;101524.28;;;17.47;82.90
13974;BME280;7060;43.770;4.008;2022-10-31T04:21:44;101522.25;;;17.49;83.13
13974;BME280;7060;43.770;4.008;2022-10-31T04:24:12;101518.88;;;17.47;82.71
13974;BME280;7060;43.770;4.008;2022-10-31T04:26:40;101521.91;;;17.44;83.09
13974;BME280;7060;43.770;4.008;2022-10-31T04:29:08;101527.31;;;17.44;83.13
13974;BME280;7060;43.770;4.008;2022-10-31T04:31:37;101524.44;;;17.45;82.86
13974;BME280;7060;43.770;4.008;2022-10-31T04:34:06;101526.31;;;17.45;82.95
13974;BME280;7060;43.770;4.008;2022-10-31T04:36:35;101536.28;;;17.44;82.96
13974;BME280;7060;43.770;4.008;2022-10-31T04:39:04;101532.38;;;17.47;82.82
13974;BME280;7060;43.770;4.008;2022-10-31T04:41:45;101517.00;;;17.39;82.87
13974;BME280;7060;43.770;4.008;2022-10-31T04:44:14;101531.53;;;17.46;82.79
13974;BME280;7060;43.770;4.008;2022-10-31T04:46:46;101531.53;;;17.46;82.88
13974;BME280;7060;43.770;4.008;2022-10-31T04:49:15;101531.53;;;17.46;82.81
13974;BME280;7060;43.770;4.008;2022-10-31T04:51:44;101521.41;;;17.40;82.83
13974;BME280;7060;43.770;4.008;2022-10-31T04:54:14;101538.63;;;17.47;82.54
13974;BME280;7060;43.770;4.008;2022-10-31T04:57:15;101530.53;;;17.39;82.96
13974;BME280;7060;43.770;4.008;2022-10-31T04:59:44;101527.47;;;17.42;82.80
13974;BME280;7060;43.770;4.008;2022-10-31T05:02:12;101522.75;;;17.44;82.92
13974;BME280;7060;43.770;4.008;2022-10-31T05:04:53;101534.25;;;17.46;82.89
13974;BME280;7060;43.770;4.008;2022-10-31T05:07:22;101527.47;;;17.42;82.71
13974;BME280;7060;43.770;4.008;2022-10-31T05:09:51;101537.47;;;17.42;82.86
13974;BME280;7060;43.770;4.008;2022-10-31T05:12:20;101534.75;;;17.42;82.82
13974;BME280;7060;43.770;4.008;2022-10-31T05:15:14;101534.91;;;17.40;82.77
13974;BME280;7060;43.770;4.008;2022-10-31T05:18:02;101540.66;;;17.37;82.69
13974;BME280;7060;43.770;4.008;2022-10-31T05:20:49;101547.09;;;17.36;82.99
13974;BME280;7060;43.770;4.008;2022-10-31T05:23:28;101525.28;;;17.38;82.98
13974;BME280;7060;43.770;4.008;2022-10-31T05:25:58;101519.72;;;17.39;82.86
13974;BME280;7060;43.770;4.008;2022-10-31T05:28:27;101525.13;;;17.39;82.95
13974;BME280;7060;43.770;4.008;2022-10-31T05:30:55;101524.94;;;17.41;82.99
13974;BME280;7060;43.770;4.008;2022-10-31T05:33:23;101524.78;;;17.42;82.50
13974;BME280;7060;43.770;4.008;2022-10-31T05:36:10;101522.41;;;17.39;82.80
13974;BME280;7060;43.770;4.008;2022-10-31T05:38:48;101523.94;;;17.42;82.42
13974;BME280;7060;43.770;4.008;2022-10-31T05:41:24;101525.28;;;17.46;82.28
13974;BME280;7060;43.770;4.008;2022-10-31T05:44:02;101525.47;;;17.44;82.13
13974;BME280;7060;43.770;4.008;2022-10-31T05:46:34;101526.31;;;17.45;81.95
13974;BME280;7060;43.770;4.008;2022-10-31T05:49:31;101531.03;;;17.43;81.92
13974;BME280;7060;43.770;4.008;2022-10-31T05:52:03;101491.38;;;17.19;81.84
13974;BME280;7060;43.770;4.008;2022-10-31T05:54:40;101500.16;;;17.21;81.80
13974;BME280;7060;43.770;4.008;2022-10-31T05:57:10;101535.75;;;17.41;81.51
13974;BME280;7060;43.770;4.008;2022-10-31T05:59:38;101535.44;;;17.36;81.59
13974;BME280;7060;43.770;4.008;2022-10-31T06:02:07;101527.19;;;17.29;81.48
13974;BME280;7060;43.770;4.008;2022-10-31T06:04:54;101523.28;;;17.23;81.74
13974;BME280;7060;43.770;4.008;2022-10-31T06:07:22;101523.47;;;17.22;81.57
13974;BME280;7060;43.770;4.008;2022-10-31T06:09:51;101518.22;;;17.20;81.63
13974;BME280;7060;43.770;4.008;2022-10-31T06:12:22;101519.06;;;17.21;81.50
13974;BME280;7060;43.770;4.008;2022-10-31T06:15:29;101515.00;;;17.17;81.82
13974;BME280;7060;43.770;4.008;2022-10-31T06:18:02;101511.97;;;17.20;81.69
13974;BME280;7060;43.770;4.008;2022-10-31T06:20:45;101523.81;;;17.19;81.65
13974;BME280;7060;43.770;4.008;2022-10-31T06:23:14;101518.22;;;17.20;81.60
13974;BME280;7060;43.770;4.008;2022-10-31T06:25:48;101519.75;;;17.23;81.12
13974;BME280;7060;43.770;4.008;2022-10-31T06:28:18;101526.16;;;17.22;81.31
13974;BME280;7060;43.770;4.008;2022-10-31T06:30:51;101525.66;;;17.18;81.54
13974;BME280;7060;43.770;4.008;2022-10-31T06:33:20;101518.72;;;17.16;81.49
13974;BME280;7060;43.770;4.008;2022-10-31T06:35:57;101523.28;;;17.15;81.49
13974;BME280;7060;43.770;4.008;2022-10-31T06:38:26;101522.28;;;17.16;81.20
13974;BME280;7060;43.770;4.008;2022-10-31T06:40:55;101525.81;;;17.17;81.14
13974;BME280;7060;43.770;4.008;2022-10-31T06:43:28;101494.78;;;16.97;81.16
13974;BME280;7060;43.770;4.008;2022-10-31T06:46:20;101529.53;;;17.16;81.12
13974;BME280;7060;43.770;4.008;2022-10-31T06:49:07;101533.75;;;17.18;81.19
13974;BME280;7060;43.770;4.008;2022-10-31T06:51:55;101539.69;;;17.22;80.99
13974;BME280;7060;43.770;4.008;2022-10-31T06:54:24;101544.75;;;17.25;80.65
13974;BME280;7060;43.770;4.008;2022-10-31T06:56:53;101545.09;;;17.30;80.75
13974;BME280;7060;43.770;4.008;2022-10-31T06:59:23;101554.34;;;17.36;80.52
13974;BME280;7060;43.770;4.008;2022-10-31T07:02:04;101556.72;;;17.39;80.59
13974;BME280;7060;43.770;4.008;2022-10-31T07:04:34;101558.06;;;17.43;80.38
13974;BME280;7060;43.770;4.008;2022-10-31T07:07:02;101560.94;;;17.41;80.34
13974;BME280;7060;43.770;4.008;2022-10-31T07:09:31;101558.06;;;17.43;80.12
13974;BME280;7060;43.770;4.008;2022-10-31T07:12:03;101555.38;;;17.43;79.91
13974;BME280;7060;43.770;4.008;2022-10-31T07:14:36;101558.22;;;17.41;79.86
13974;BME280;7060;43.770;4.008;2022-10-31T07:17:05;101566.34;;;17.41;79.58
13974;BME280;7060;43.770;4.008;2022-10-31T07:19:38;101559.25;;;17.40;79.60
13974;BME280;7060;43.770;4.008;2022-10-31T07:22:08;101568.19;;;17.41;79.30
13974;BME280;7060;43.770;4.008;2022-10-31T07:24:37;101573.44;;;17.42;79.40
13974;BME280;7060;43.770;4.008;2022-10-31T07:27:24;101569.38;;;17.38;79.33
13974;BME280;7060;43.770;4.008;2022-10-31T07:29:54;101577.31;;;17.40;79.51
13974;BME280;7060;43.770;4.008;2022-10-31T07:32:22;101579.19;;;17.39;79.40
13974;BME280;7060;43.770;4.008;2022-10-31T07:34:56;101572.94;;;17.39;79.28
13974;BME280;7060;43.770;4.008;2022-10-31T07:37:32;101583.56;;;17.40;79.26
13974;BME280;7060;43.770;4.008;2022-10-31T07:40:01;101582.22;;;17.44;79.37
13974;BME280;7060;43.770;4.008;2022-10-31T07:42:34;101586.44;;;17.47;79.42
13974;BME280;7060;43.770;4.008;2022-10-31T07:45:06;101583.91;;;17.53;79.21
13974;BME280;7060;43.770;4.008;2022-10-31T07:48:09;101601.16;;;17.52;79.45
13974;BME280;7060;43.770;4.008;2022-10-31T07:50:57;101595.41;;;17.55;79.27
13974;BME280;7060;43.770;4.008;2022-10-31T07:53:45;101604.19;;;17.57;79.10
13974;BME280;7060;43.770;4.008;2022-10-31T07:56:27;101603.00;;;17.60;78.96
13974;BME280;7060;43.770;4.008;2022-10-31T07:58:55;101608.94;;;17.64;78.61
13974;BME280;7060;43.770;4.008;2022-10-31T08:01:25;101607.25;;;17.63;78.50
13974;BME280;7060;43.770;4.008;2022-10-31T08:04:13;101616.38;;;17.62;78.83
13974;BME280;7060;43.770;4.008;2022-10-31T08:07:00;101609.28;;;17.60;78.87
13974;BME280;7060;43.770;4.008;2022-10-31T08:09:33;101610.13;;;17.61;79.01
13974;BME280;7060;43.770;4.008;2022-10-31T08:12:09;101602.19;;;17.59;79.01
13974;BME280;7060;43.770;4.008;2022-10-31T08:14:38;101601.31;;;17.59;79.06
13974;BME280;7060;43.770;4.008;2022-10-31T08:17:08;101602.19;;;17.59;79.19
13974;BME280;7060;43.770;4.008;2022-10-31T08:19:46;101606.22;;;17.64;79.50
13974;BME280;7060;43.770;4.008;2022-10-31T08:22:15;101611.63;;;17.72;79.84
13974;BME280;7060;43.770;4.008;2022-10-31T08:24:44;101616.03;;;17.81;79.99
13974;BME280;7060;43.770;4.008;2022-10-31T08:27:12;101621.22;;;17.90;79.46
13974;BME280;7060;43.770;4.008;2022-10-31T08:29:40;101615.81;;;17.99;79.30
13974;BME280;7060;43.770;4.008;2022-10-31T08:32:10;101619.69;;;18.04;79.01
13974;BME280;7060;43.770;4.008;2022-10-31T08:34:56;101607.19;;;18.03;79.03
13974;BME280;7060;43.770;4.008;2022-10-31T08:37:41;101602.44;;;18.05;79.10
13974;BME280;7060;43.770;4.008;2022-10-31T08:40:10;101604.81;;;18.08;79.01
13974;BME280;7060;43.770;4.008;2022-10-31T08:42:40;101606.84;;;18.06;79.20
13974;BME280;7060;43.770;4.008;2022-10-31T08:45:09;101603.63;;;18.11;78.73
13974;BME280;7060;43.770;4.008;2022-10-31T08:47:39;101603.91;;;18.16;78.91
13974;BME280;7060;43.770;4.008;2022-10-31T08:50:08;101600.00;;;18.18;79.07
13974;BME280;7060;43.770;4.008;2022-10-31T08:52:36;101591.38;;;18.23;79.01
13974;BME280;7060;43.770;4.008;2022-10-31T08:55:26;101603.03;;;18.23;79.08
13974;BME280;7060;43.770;4.008;2022-10-31T08:58:03;101609.47;;;18.22;78.95
13974;BME280;7060;43.770;4.008;2022-10-31T09:00:45;101601.69;;;18.27;79.42
13974;BME280;7060;43.770;4.008;2022-10-31T09:03:19;101592.53;;;18.28;79.38
13974;BME280;7060;43.770;4.008;2022-10-31T09:05:48;101602.00;;;18.33;79.44
13974;BME280;7060;43.770;4.008;2022-10-31T09:08:17;101608.94;;;18.35;79.42
13974;BME280;7060;43.770;4.008;2022-10-31T09:10:47;101603.34;;;18.37;79.27
13974;BME280;7060;43.770;4.008;2022-10-31T09:13:22;101606.06;;;18.37;79.27
13974;BME280;7060;43.770;4.008;2022-10-31T09:16:26;101604.38;;;18.36;79.96
13974;BME280;7060;43.770;4.008;2022-10-31T09:18:56;101603.66;;;18.42;80.29
13974;BME280;7060;43.770;4.008;2022-10-31T09:21:24;101604.97;;;18.46;80.25
13974;BME280;7060;43.770;4.008;2022-10-31T09:23:52;101591.78;;;18.51;80.38
13974;BME280;7060;43.770;4.008;2022-10-31T09:26:22;101590.91;;;18.58;80.53
13974;BME280;7060;43.770;4.008;2022-10-31T09:29:16;101588.53;;;18.64;81.19
13974;BME280;7060;43.770;4.008;2022-10-31T09:31:49;101579.03;;;18.68;81.15
13974;BME280;7060;43.770;4.008;2022-10-31T09:34:34;101588.09;;;18.75;81.14
13974;BME280;7060;43.770;4.008;2022-10-31T09:37:05;101573.53;;;18.76;81.33
13974;BME280;7060;43.770;4.008;2022-10-31T09:39:34;101574.03;;;18.79;81.61
13974;BME280;7060;43.770;4.008;2022-10-31T09:42:35;101571.63;;;18.84;81.47
13974;BME280;7060;43.770;4.008;2022-10-31T09:45:17;101574.16;;;18.86;81.53
13974;BME280;7060;43.770;4.008;2022-10-31T09:47:57;101567.72;;;18.87;81.54
13974;BME280;7060;43.770;4.008;2022-10-31T09:50:37;101578.38;;;18.88;81.99
13974;BME280;7060;43.770;4.008;2022-10-31T09:53:37;101565.66;;;18.89;82.38
13974;BME280;7060;43.770;4.008;2022-10-31T09:56:12;101528.00;;;18.71;82.95
13974;BME280;7060;43.770;4.008;2022-10-31T09:58:43;101561.63;;;19.08;83.36
13974;BME280;7060;43.770;4.008;2022-10-31T10:01:23;101559.16;;;19.21;83.23
13974;BME280;7060;43.770;4.008;2022-10-31T10:03:58;101564.66;;;19.27;83.01
13974;BME280;7060;43.770;4.008;2022-10-31T10:06:52;101556.19;;;19.31;83.03
13974;BME280;7060;43.770;4.008;2022-10-31T10:09:38;101552.75;;;19.37;82.68
13974;BME280;7060;43.770;4.008;2022-10-31T10:12:45;101552.22;;;19.41;81.99
13974;BME280;7060;43.770;4.008;2022-10-31T10:15:33;101546.44;;;19.44;81.63
13974;BME280;7060;43.770;4.008;2022-10-31T10:18:10;101543.19;;;19.49;81.39
13974;BME280;7060;43.770;4.008;2022-10-31T10:20:46;101538.50;;;19.57;81.35
13974;BME280;7060;43.770;4.008;2022-10-31T10:23:36;101546.28;;;19.75;80.95
13974;BME280;7060;43.770;4.008;2022-10-31T10:26:17;101544.97;;;19.86;79.68
13974;BME280;7060;43.770;4.008;2022-10-31T10:28:49;101548.63;;;19.93;80.27
13974;BME280;7060;43.770;4.008;2022-10-31T10:31:22;101551.44;;;20.00;79.42
13974;BME280;7060;43.770;4.008;2022-10-31T10:33:59;101552.56;;;20.05;78.71
13974;BME280;7060;43.770;4.008;2022-10-31T10:36:36;101547.38;;;20.10;78.33
13974;BME280;7060;43.770;4.008;2022-10-31T10:39:11;101547.38;;;20.10;77.77
13974;BME280;7060;43.770;4.008;2022-10-31T10:41:44;101541.88;;;20.18;77.44
13974;BME280;7060;43.770;4.008;2022-10-31T10:44:28;101537.97;;;20.21;77.18
13974;BME280;7060;43.770;4.008;2022-10-31T10:47:14;101537.97;;;20.21;77.76
13974;BME280;7060;43.770;4.008;2022-10-31T10:50:03;101539.84;;;20.20;77.24
13974;BME280;7060;43.770;4.008;2022-10-31T10:52:37;101541.88;;;20.18;77.03
13974;BME280;7060;43.770;4.008;2022-10-31T10:55:26;101540.94;;;20.11;76.77
13974;BME280;7060;43.770;4.008;2022-10-31T10:58:00;101544.47;;;20.12;76.93
13974;BME280;7060;43.770;4.008;2022-10-31T11:00:31;101513.44;;;20.00;76.93
13974;BME280;7060;43.770;4.008;2022-10-31T11:03:00;101530.47;;;20.23;77.01
13974;BME280;7060;43.770;4.008;2022-10-31T11:05:37;101507.25;;;20.20;76.55
13974;BME280;7060;43.770;4.008;2022-10-31T11:08:07;101528.94;;;20.35;75.99
13974;BME280;7060;43.770;4.008;2022-10-31T11:10:37;101522.28;;;20.38;75.10
13974;BME280;7060;43.770;4.008;2022-10-31T11:13:20;101520.88;;;20.42;74.58
13974;BME280;7060;43.770;4.008;2022-10-31T11:15:54;101511.88;;;20.41;74.33
13974;BME280;7060;43.770;4.008;2022-10-31T11:18:25;101521.53;;;20.44;73.83
13974;BME280;7060;43.770;4.008;2022-10-31T11:20:55;101515.91;;;20.45;73.37
13974;BME280;7060;43.770;4.008;2022-10-31T11:23:25;101516.94;;;20.44;73.09
13974;BME280;7060;43.770;4.008;2022-10-31T11:25:57;101505.22;;;20.44;73.37
13974;BME280;7060;43.770;4.008;2022-10-31T11:28:26;101503.09;;;20.39;73.01
13974;BME280;7060;43.770;4.008;2022-10-31T11:30:57;101504.75;;;20.40;72.69
13974;BME280;7060;43.770;4.008;2022-10-31T11:33:30;101496.63;;;20.40;72.80
13974;BME280;7060;43.770;4.008;2022-10-31T11:36:01;101486.78;;;20.39;72.72
13974;BME280;7060;43.770;4.008;2022-10-31T11:38:34;101462.03;;;20.27;72.97
13974;BME280;7060;43.770;4.008;2022-10-31T11:41:11;101489.38;;;20.47;72.93
13974;BME280;7060;43.770;4.008;2022-10-31T11:43:48;101485.00;;;20.46;73.13
13974;BME280;7060;43.770;4.008;2022-10-31T11:46:20;101482.94;;;20.48;73.25
13974;BME280;7060;43.770;4.008;2022-10-31T11:48:53;101472.91;;;20.49;73.16
13974;BME280;7060;43.770;4.008;2022-10-31T11:51:24;101475.50;;;20.57;73.18
13974;BME280;7060;43.770;4.008;2022-10-31T11:53:55;101437.53;;;20.42;73.12
13974;BME280;7060;43.770;4.008;2022-10-31T11:56:39;101474.97;;;20.68;72.47
13974;BME280;7060;43.770;4.008;2022-10-31T11:59:18;101465.41;;;20.72;72.61
13974;BME280;7060;43.770;4.008;2022-10-31T12:01:48;101465.66;;;20.77;72.51
13974;BME280;7060;43.770;4.008;2022-10-31T12:04:17;101458.16;;;20.79;72.47
13974;BME280;7060;43.770;4.008;2022-10-31T12:06:46;101459.19;;;20.78;72.35
13974;BME280;7060;43.770;4.008;2022-10-31T12:09:21;101456.88;;;20.75;71.98
13974;BME280;7060;43.770;4.008;2022-10-31T12:12:04;101452.72;;;20.79;72.53
13974;BME280;7060;43.770;4.008;2022-10-31T12:14:42;101454.03;;;20.83;72.72
13974;BME280;7060;43.770;4.008;2022-10-31T12:17:15;101446.50;;;20.85;72.40
13974;BME280;7060;43.770;4.008;2022-10-31T12:19:54;101396.09;;;20.61;72.58
13974;BME280;7060;43.770;4.008;2022-10-31T12:22:33;101440.91;;;20.93;72.69
13974;BME280;7060;43.770;4.008;2022-10-31T12:25:18;101445.31;;;20.94;72.46
13974;BME280;7060;43.770;4.008;2022-10-31T12:28:07;101435.47;;;20.93;71.85
13974;BME280;7060;43.770;4.008;2022-10-31T12:30:49;101433.34;;;20.89;71.20
13974;BME280;7060;43.770;4.008;2022-10-31T12:33:41;101427.88;;;20.82;71.32
13974;BME280;7060;43.770;4.008;2022-10-31T12:36:21;101423.31;;;20.89;72.07
13974;BME280;7060;43.770;4.008;2022-10-31T12:39:12;101418.03;;;21.03;72.45
13974;BME280;7060;43.770;4.008;2022-10-31T12:41:47;101408.03;;;21.10;71.89
13974;BME280;7060;43.770;4.008;2022-10-31T12:44:34;101398.41;;;21.07;71.92
13974;BME280;7060;43.770;4.008;2022-10-31T12:50:16;101407.25;;;20.94;72.00
13974;BME280;7060;43.770;4.008;2022-10-31T12:52:56;101413.47;;;20.88;71.84
13974;BME280;7060;43.770;4.008;2022-10-31T12:55:39;101413.44;;;20.82;72.10
13974;BME280;7060;43.770;4.008;2022-10-31T12:58:16;101410.53;;;20.83;72.50
13974;BME280;7060;43.770;4.008;2022-10-31T13:00:48;101405.31;;;20.88;72.48
13974;BME280;7060;43.770;4.008;2022-10-31T13:03:28;101398.84;;;20.89;72.14
13974;BME280;7060;43.770;4.008;2022-10-31T13:06:04;101408.25;;;20.87;72.47
13974;BME280;7060;43.770;4.008;2022-10-31T13:08:39;101393.84;;;20.86;72.27
13974;BME280;7060;43.770;4.008;2022-10-31T13:11:13;101395.94;;;20.91;72.31
13974;BME280;7060;43.770;4.008;2022-10-31T13:13:49;101385.13;;;20.98;72.33
13974;BME280;7060;43.770;4.008;2022-10-31T13:16:23;101360.19;;;20.87;71.75
13974;BME280;7060;43.770;4.008;2022-10-31T13:18:57;101367.22;;;21.03;71.78
13974;BME280;7060;43.770;4.008;2022-10-31T13:21:34;101361.59;;;21.05;71.10
13974;BME280;7060;43.770;4.008;2022-10-31T13:24:08;101372.06;;;21.08;71.46
13974;BME280;7060;43.770;4.008;2022-10-31T13:26:43;101377.31;;;21.09;71.61
13974;BME280;7060;43.770;4.008;2022-10-31T13:29:18;101359.91;;;21.04;71.82
13974;BME280;7060;43.770;4.008;2022-10-31T13:31:53;101245.97;;;20.46;72.10
13974;BME280;7060;43.770;4.008;2022-10-31T13:34:27;101365.66;;;21.22;71.59
13974;BME280;7060;43.770;4.008;2022-10-31T13:37:03;101354.97;;;21.20;71.14
13974;BME280;7060;43.770;4.008;2022-10-31T13:39:55;101362.47;;;21.18;71.20
13974;BME280;7060;43.770;4.008;2022-10-31T13:42:42;101360.38;;;21.14;72.04
13974;BME280;7060;43.770;4.008;2022-10-31T13:45:18;101351.19;;;21.15;72.07
13974;BME280;7060;43.770;4.008;2022-10-31T13:47:57;101359.75;;;21.18;71.67